sensor_id;sensor_type;location;lat;lon;timestamp;P1;durP1;ratioP1;P2;durP2;ratioP2
16393;SDS011;8306;51.128;4.476;2024-03-23T00:55:09;9.57;;;5.40;;
16393;SDS011;8306;51.128;4.476;2024-03-23T00:57:35;14.03;;;5.40;;
16393;SDS011;8306;51.128;4.476;2024-03-23T01:00:02;10.60;;;5.67;;
16393;SDS011;8306;51.128;4.476;2024-03-23T01:02:28;10.30;;;5.83;;
16393;SDS011;8306;51.128;4.476;2024-03-23T01:04:55;12.90;;;6.70;;
16393;SDS011;8306;51.128;4.476;2024-03-23T01:07:21;14.87;;;6.77;;
16393;SDS011;8306;51.128;4.476;2024-03-23T01:09:47;14.77;;;7.07;;
16393;SDS011;8306;51.128;4.476;2024-03-23T01:12:14;16.90;;;8.37;;
16393;SDS011;8306;51.128;4.476;2024-03-23T01:14:40;13.63;;;7.40;;
16393;SDS011;8306;51.128;4.476;2024-03-23T01:17:07;16.53;;;8.47;;
16393;SDS011;8306;51.128;4.476;2024-03-23T01:19:33;19.50;;;9.37;;
16393;SDS011;8306;51.128;4.476;2024-03-23T01:22:00;12.07;;;7.73;;
16393;SDS011;8306;51.128;4.476;2024-03-23T01:24:26;23.43;;;10.03;;
16393;SDS011;8306;51.128;4.476;2024-03-23T01:26:53;10.87;;;8.00;;
16393;SDS011;8306;51.128;4.476;2024-03-23T01:29:19;9.57;;;6.97;;
16393;SDS011;8306;51.128;4.476;2024-03-23T01:31:46;15.20;;;8.77;;
16393;SDS011;8306;51.128;4.476;2024-03-23T01:34:12;10.23;;;7.07;;
16393;SDS011;8306;51.128;4.476;2024-03-23T01:36:39;11.70;;;7.27;;
16393;SDS011;8306;51.128;4.476;2024-03-23T01:39:05;10.20;;;7.23;;
16393;SDS011;8306;51.128;4.476;2024-03-23T01:41:32;12.83;;;5.80;;
16393;SDS011;8306;51.128;4.476;2024-03-23T01:43:58;8.07;;;5.93;;
16393;SDS011;8306;51.128;4.476;2024-03-23T01:46:25;7.37;;;5.40;;
16393;SDS011;8306;51.128;4.476;2024-03-23T01:48:51;8.23;;;5.53;;
16393;SDS011;8306;51.128;4.476;2024-03-23T01:51:18;12.13;;;6.80;;
16393;SDS011;8306;51.128;4.476;2024-03-23T01:53:44;8.43;;;5.17;;
16393;SDS011;8306;51.128;4.476;2024-03-23T01:56:11;10.27;;;6.83;;
16393;SDS011;8306;51.128;4.476;2024-03-23T01:58:37;10.60;;;5.30;;
16393;SDS011;8306;51.128;4.476;2024-03-23T02:01:04;11.53;;;5.90;;
16393;SDS011;8306;51.128;4.476;2024-03-23T02:03:30;9.87;;;5.17;;
16393;SDS011;8306;51.128;4.476;2024-03-23T02:05:57;7.80;;;5.60;;
16393;SDS011;8306;51.128;4.476;2024-03-23T02:08:23;225.83;;;14.17;;
16393;SDS011;8306;51.128;4.476;2024-03-23T02:10:50;9.83;;;5.97;;
16393;SDS011;8306;51.128;4.476;2024-03-23T02:13:17;15.60;;;7.77;;
16393;SDS011;8306;51.128;4.476;2024-03-23T02:15:43;15.07;;;8.13;;
16393;SDS011;8306;51.128;4.476;2024-03-23T02:18:09;10.17;;;6.50;;
16393;SDS011;8306;51.128;4.476;2024-03-23T02:20:36;10.53;;;7.03;;
16393;SDS011;8306;51.128;4.476;2024-03-23T02:23:02;10.43;;;6.33;;
16393;SDS011;8306;51.128;4.476;2024-03-23T02:25:28;14.53;;;8.37;;
16393;SDS011;8306;51.128;4.476;2024-03-23T02:27:55;16.20;;;7.87;;
16393;SDS011;8306;51.128;4.476;2024-03-23T02:30:21;10.40;;;7.23;;
16393;SDS011;8306;51.128;4.476;2024-03-23T02:32:48;12.50;;;8.43;;
16393;SDS011;8306;51.128;4.476;2024-03-23T02:35:14;11.57;;;7.47;;
16393;SDS011;8306;51.128;4.476;2024-03-23T02:37:41;14.73;;;7.60;;
16393;SDS011;8306;51.128;4.476;2024-03-23T02:40:07;10.93;;;8.33;;
16393;SDS011;8306;51.128;4.476;2024-03-23T02:42:34;12.43;;;7.87;;
16393;SDS011;8306;51.128;4.476;2024-03-23T02:45:00;18.13;;;9.73;;
16393;SDS011;8306;51.128;4.476;2024-03-23T02:47:27;13.80;;;8.83;;
16393;SDS011;8306;51.128;4.476;2024-03-23T02:49:53;10.10;;;7.90;;
16393;SDS011;8306;51.128;4.476;2024-03-23T02:52:20;12.20;;;8.07;;
16393;SDS011;8306;51.128;4.476;2024-03-23T02:54:46;13.80;;;7.43;;
16393;SDS011;8306;51.128;4.476;2024-03-23T02:57:13;12.87;;;7.43;;
16393;SDS011;8306;51.128;4.476;2024-03-23T02:59:39;16.40;;;8.17;;
16393;SDS011;8306;51.128;4.476;2024-03-23T03:02:06;14.93;;;8.67;;
16393;SDS011;8306;51.128;4.476;2024-03-23T03:04:32;11.00;;;7.63;;
16393;SDS011;8306;51.128;4.476;2024-03-23T03:06:59;12.77;;;7.30;;
16393;SDS011;8306;51.128;4.476;2024-03-23T03:09:25;13.73;;;7.37;;
16393;SDS011;8306;51.128;4.476;2024-03-23T03:11:52;9.63;;;6.63;;
16393;SDS011;8306;51.128;4.476;2024-03-23T03:14:18;13.70;;;7.13;;
16393;SDS011;8306;51.128;4.476;2024-03-23T03:16:45;10.87;;;6.70;;
16393;SDS011;8306;51.128;4.476;2024-03-23T03:19:11;11.97;;;5.70;;
16393;SDS011;8306;51.128;4.476;2024-03-23T03:21:38;9.73;;;5.97;;
16393;SDS011;8306;51.128;4.476;2024-03-23T03:24:05;8.63;;;5.70;;
16393;SDS011;8306;51.128;4.476;2024-03-23T03:26:31;11.40;;;5.60;;
16393;SDS011;8306;51.128;4.476;2024-03-23T03:28:57;11.30;;;6.47;;
16393;SDS011;8306;51.128;4.476;2024-03-23T03:31:24;8.37;;;5.83;;
16393;SDS011;8306;51.128;4.476;2024-03-23T03:33:50;9.10;;;6.00;;
16393;SDS011;8306;51.128;4.476;2024-03-23T03:36:17;14.17;;;6.63;;
16393;SDS011;8306;51.128;4.476;2024-03-23T03:38:43;10.60;;;6.17;;
16393;SDS011;8306;51.128;4.476;2024-03-23T03:41:09;9.50;;;6.23;;
16393;SDS011;8306;51.128;4.476;2024-03-23T03:43:36;9.27;;;5.70;;
16393;SDS011;8306;51.128;4.476;2024-03-23T03:46:02;12.17;;;6.50;;
16393;SDS011;8306;51.128;4.476;2024-03-23T03:48:29;9.87;;;5.47;;
16393;SDS011;8306;51.128;4.476;2024-03-23T03:50:55;8.63;;;6.03;;
16393;SDS011;8306;51.128;4.476;2024-03-23T03:53:22;8.17;;;5.80;;
16393;SDS011;8306;51.128;4.476;2024-03-23T03:55:48;14.73;;;6.93;;
16393;SDS011;8306;51.128;4.476;2024-03-23T03:58:15;7.90;;;5.67;;
16393;SDS011;8306;51.128;4.476;2024-03-23T04:00:41;12.07;;;5.83;;
16393;SDS011;8306;51.128;4.476;2024-03-23T04:03:08;9.70;;;6.10;;
16393;SDS011;8306;51.128;4.476;2024-03-23T04:05:34;15.30;;;5.57;;
16393;SDS011;8306;51.128;4.476;2024-03-23T04:08:01;10.80;;;5.70;;
16393;SDS011;8306;51.128;4.476;2024-03-23T04:10:27;9.67;;;5.20;;
16393;SDS011;8306;51.128;4.476;2024-03-23T04:12:54;11.17;;;5.73;;
16393;SDS011;8306;51.128;4.476;2024-03-23T04:15:20;6.77;;;4.70;;
16393;SDS011;8306;51.128;4.476;2024-03-23T04:17:47;9.60;;;4.63;;
16393;SDS011;8306;51.128;4.476;2024-03-23T04:20:13;14.90;;;4.90;;
16393;SDS011;8306;51.128;4.476;2024-03-23T04:22:40;9.10;;;4.13;;
16393;SDS011;8306;51.128;4.476;2024-03-23T04:25:06;11.23;;;5.53;;
16393;SDS011;8306;51.128;4.476;2024-03-23T04:27:33;10.83;;;4.97;;
16393;SDS011;8306;51.128;4.476;2024-03-23T04:29:59;9.13;;;4.20;;
16393;SDS011;8306;51.128;4.476;2024-03-23T04:32:25;10.40;;;5.13;;
16393;SDS011;8306;51.128;4.476;2024-03-23T04:34:52;12.50;;;4.80;;
16393;SDS011;8306;51.128;4.476;2024-03-23T04:37:18;7.63;;;4.20;;
16393;SDS011;8306;51.128;4.476;2024-03-23T04:39:45;8.27;;;4.27;;
16393;SDS011;8306;51.128;4.476;2024-03-23T04:42:11;8.13;;;5.53;;
16393;SDS011;8306;51.128;4.476;2024-03-23T04:44:38;10.40;;;5.00;;
16393;SDS011;8306;51.128;4.476;2024-03-23T04:47:04;10.90;;;5.13;;
16393;SDS011;8306;51.128;4.476;2024-03-23T04:49:31;9.80;;;5.47;;
16393;SDS011;8306;51.128;4.476;2024-03-23T04:51:57;9.13;;;6.57;;
16393;SDS011;8306;51.128;4.476;2024-03-23T04:54:24;10.50;;;6.13;;
16393;SDS011;8306;51.128;4.476;2024-03-23T04:56:50;15.13;;;7.07;;
16393;SDS011;8306;51.128;4.476;2024-03-23T04:59:17;11.90;;;6.80;;
16393;SDS011;8306;51.128;4.476;2024-03-23T05:01:43;10.50;;;6.10;;
16393;SDS011;8306;51.128;4.476;2024-03-23T05:04:10;10.00;;;6.70;;
16393;SDS011;8306;51.128;4.476;2024-03-23T05:06:36;10.00;;;7.47;;
16393;SDS011;8306;51.128;4.476;2024-03-23T05:09:03;13.73;;;7.27;;
16393;SDS011;8306;51.128;4.476;2024-03-23T05:11:32;16.77;;;6.40;;
16393;SDS011;8306;51.128;4.476;2024-03-23T05:13:59;14.80;;;7.00;;
16393;SDS011;8306;51.128;4.476;2024-03-23T05:16:25;9.83;;;6.60;;
16393;SDS011;8306;51.128;4.476;2024-03-23T05:18:51;15.30;;;6.33;;
16393;SDS011;8306;51.128;4.476;2024-03-23T05:21:18;9.93;;;5.80;;
16393;SDS011;8306;51.128;4.476;2024-03-23T05:23:44;10.97;;;6.07;;
16393;SDS011;8306;51.128;4.476;2024-03-23T05:26:11;13.53;;;5.90;;
16393;SDS011;8306;51.128;4.476;2024-03-23T05:28:37;11.00;;;5.90;;
16393;SDS011;8306;51.128;4.476;2024-03-23T05:31:04;9.00;;;5.50;;
16393;SDS011;8306;51.128;4.476;2024-03-23T05:33:30;14.80;;;5.90;;
16393;SDS011;8306;51.128;4.476;2024-03-23T05:35:57;9.23;;;5.43;;
16393;SDS011;8306;51.128;4.476;2024-03-23T05:38:23;11.70;;;5.07;;
16393;SDS011;8306;51.128;4.476;2024-03-23T05:40:53;9.67;;;4.83;;
16393;SDS011;8306;51.128;4.476;2024-03-23T05:43:19;12.93;;;4.67;;
16393;SDS011;8306;51.128;4.476;2024-03-23T05:45:46;7.40;;;4.33;;
16393;SDS011;8306;51.128;4.476;2024-03-23T05:48:12;12.30;;;5.17;;
16393;SDS011;8306;51.128;4.476;2024-03-23T05:50:39;16.47;;;4.47;;
16393;SDS011;8306;51.128;4.476;2024-03-23T05:53:05;10.43;;;4.13;;
16393;SDS011;8306;51.128;4.476;2024-03-23T05:55:32;13.20;;;4.50;;
16393;SDS011;8306;51.128;4.476;2024-03-23T05:57:58;13.20;;;4.13;;
16393;SDS011;8306;51.128;4.476;2024-03-23T06:00:24;21.27;;;4.07;;
16393;SDS011;8306;51.128;4.476;2024-03-23T06:02:51;8.73;;;3.60;;
16393;SDS011;8306;51.128;4.476;2024-03-23T06:05:17;11.73;;;4.10;;
16393;SDS011;8306;51.128;4.476;2024-03-23T06:07:44;11.83;;;3.17;;
16393;SDS011;8306;51.128;4.476;2024-03-23T06:10:10;9.83;;;3.30;;
16393;SDS011;8306;51.128;4.476;2024-03-23T06:12:37;14.47;;;3.90;;
16393;SDS011;8306;51.128;4.476;2024-03-23T06:15:03;8.90;;;3.27;;
16393;SDS011;8306;51.128;4.476;2024-03-23T06:17:30;8.43;;;3.00;;
16393;SDS011;8306;51.128;4.476;2024-03-23T06:19:56;6.37;;;2.67;;
16393;SDS011;8306;51.128;4.476;2024-03-23T06:22:23;9.07;;;3.17;;
16393;SDS011;8306;51.128;4.476;2024-03-23T06:24:49;8.83;;;3.47;;
16393;SDS011;8306;51.128;4.476;2024-03-23T06:27:16;10.50;;;3.43;;
16393;SDS011;8306;51.128;4.476;2024-03-23T06:29:42;9.33;;;3.87;;
16393;SDS011;8306;51.128;4.476;2024-03-23T06:32:09;12.70;;;3.47;;
16393;SDS011;8306;51.128;4.476;2024-03-23T06:34:35;8.43;;;3.23;;
16393;SDS011;8306;51.128;4.476;2024-03-23T06:37:02;11.43;;;3.53;;
16393;SDS011;8306;51.128;4.476;2024-03-23T06:39:28;7.07;;;2.80;;
16393;SDS011;8306;51.128;4.476;2024-03-23T06:41:55;12.93;;;2.90;;
16393;SDS011;8306;51.128;4.476;2024-03-23T06:44:21;7.00;;;2.57;;
16393;SDS011;8306;51.128;4.476;2024-03-23T06:46:48;7.03;;;2.97;;
16393;SDS011;8306;51.128;4.476;2024-03-23T06:49:14;6.57;;;2.67;;
16393;SDS011;8306;51.128;4.476;2024-03-23T06:51:41;6.90;;;3.13;;
16393;SDS011;8306;51.128;4.476;2024-03-23T06:54:07;6.63;;;2.70;;
16393;SDS011;8306;51.128;4.476;2024-03-23T06:56:34;6.90;;;3.30;;
16393;SDS011;8306;51.128;4.476;2024-03-23T06:59:00;5.53;;;2.60;;
16393;SDS011;8306;51.128;4.476;2024-03-23T07:01:26;7.87;;;2.80;;
16393;SDS011;8306;51.128;4.476;2024-03-23T07:03:53;7.03;;;2.77;;
16393;SDS011;8306;51.128;4.476;2024-03-23T07:06:19;6.00;;;2.73;;
16393;SDS011;8306;51.128;4.476;2024-03-23T07:08:46;6.03;;;2.40;;
16393;SDS011;8306;51.128;4.476;2024-03-23T07:11:18;4.80;;;2.40;;
16393;SDS011;8306;51.128;4.476;2024-03-23T07:13:39;8.13;;;3.13;;
16393;SDS011;8306;51.128;4.476;2024-03-23T07:16:05;5.83;;;2.50;;
16393;SDS011;8306;51.128;4.476;2024-03-23T07:18:32;6.30;;;2.80;;
16393;SDS011;8306;51.128;4.476;2024-03-23T07:20:58;9.30;;;2.90;;
16393;SDS011;8306;51.128;4.476;2024-03-23T07:23:25;8.43;;;2.40;;
16393;SDS011;8306;51.128;4.476;2024-03-23T07:26:01;5.73;;;2.67;;
16393;SDS011;8306;51.128;4.476;2024-03-23T07:28:27;5.30;;;2.33;;
16393;SDS011;8306;51.128;4.476;2024-03-23T07:33:35;11.03;;;3.37;;
16393;SDS011;8306;51.128;4.476;2024-03-23T07:36:01;7.07;;;2.77;;
16393;SDS011;8306;51.128;4.476;2024-03-23T07:38:28;6.67;;;2.40;;
16393;SDS011;8306;51.128;4.476;2024-03-23T07:41:06;4.93;;;2.67;;
16393;SDS011;8306;51.128;4.476;2024-03-23T07:43:32;6.87;;;2.93;;
16393;SDS011;8306;51.128;4.476;2024-03-23T07:45:59;6.57;;;2.30;;
16393;SDS011;8306;51.128;4.476;2024-03-23T07:48:25;8.10;;;2.80;;
16393;SDS011;8306;51.128;4.476;2024-03-23T07:51:02;5.23;;;2.43;;
16393;SDS011;8306;51.128;4.476;2024-03-23T07:53:31;7.70;;;3.03;;
16393;SDS011;8306;51.128;4.476;2024-03-23T07:55:57;7.47;;;2.80;;
16393;SDS011;8306;51.128;4.476;2024-03-23T07:58:23;5.17;;;2.27;;
16393;SDS011;8306;51.128;4.476;2024-03-23T08:00:50;6.60;;;2.60;;
16393;SDS011;8306;51.128;4.476;2024-03-23T08:03:16;7.20;;;2.87;;
16393;SDS011;8306;51.128;4.476;2024-03-23T08:05:43;6.50;;;2.27;;
16393;SDS011;8306;51.128;4.476;2024-03-23T08:08:09;4.73;;;2.17;;
16393;SDS011;8306;51.128;4.476;2024-03-23T08:10:36;8.03;;;3.13;;
16393;SDS011;8306;51.128;4.476;2024-03-23T08:13:02;7.30;;;2.77;;
16393;SDS011;8306;51.128;4.476;2024-03-23T08:15:31;5.90;;;2.80;;
16393;SDS011;8306;51.128;4.476;2024-03-23T08:17:58;6.63;;;2.67;;
16393;SDS011;8306;51.128;4.476;2024-03-23T08:20:24;6.30;;;2.57;;
16393;SDS011;8306;51.128;4.476;2024-03-23T08:22:51;5.33;;;2.57;;
16393;SDS011;8306;51.128;4.476;2024-03-23T08:25:17;5.87;;;2.60;;
16393;SDS011;8306;51.128;4.476;2024-03-23T08:27:44;10.17;;;2.23;;
16393;SDS011;8306;51.128;4.476;2024-03-23T08:30:10;5.47;;;2.40;;
16393;SDS011;8306;51.128;4.476;2024-03-23T08:32:36;7.67;;;2.33;;
16393;SDS011;8306;51.128;4.476;2024-03-23T08:35:03;6.97;;;2.80;;
16393;SDS011;8306;51.128;4.476;2024-03-23T08:37:29;4.93;;;2.10;;
16393;SDS011;8306;51.128;4.476;2024-03-23T08:39:56;5.53;;;1.80;;
16393;SDS011;8306;51.128;4.476;2024-03-23T08:42:22;5.77;;;2.47;;
16393;SDS011;8306;51.128;4.476;2024-03-23T08:44:49;5.50;;;2.00;;
16393;SDS011;8306;51.128;4.476;2024-03-23T08:47:16;6.50;;;2.37;;
16393;SDS011;8306;51.128;4.476;2024-03-23T08:49:42;5.03;;;2.33;;
16393;SDS011;8306;51.128;4.476;2024-03-23T08:52:08;7.30;;;2.70;;
16393;SDS011;8306;51.128;4.476;2024-03-23T08:54:35;6.07;;;2.37;;
16393;SDS011;8306;51.128;4.476;2024-03-23T08:57:01;7.77;;;2.63;;
16393;SDS011;8306;51.128;4.476;2024-03-23T08:59:28;6.37;;;2.43;;
16393;SDS011;8306;51.128;4.476;2024-03-23T09:01:54;4.73;;;2.33;;
16393;SDS011;8306;51.128;4.476;2024-03-23T09:04:21;6.17;;;3.00;;
16393;SDS011;8306;51.128;4.476;2024-03-23T09:06:47;7.27;;;2.83;;
16393;SDS011;8306;51.128;4.476;2024-03-23T09:09:14;4.33;;;2.50;;
16393;SDS011;8306;51.128;4.476;2024-03-23T09:11:40;5.90;;;2.43;;
16393;SDS011;8306;51.128;4.476;2024-03-23T09:14:07;4.50;;;2.23;;
16393;SDS011;8306;51.128;4.476;2024-03-23T09:16:33;6.03;;;2.30;;
16393;SDS011;8306;51.128;4.476;2024-03-23T09:19:00;6.77;;;2.33;;
16393;SDS011;8306;51.128;4.476;2024-03-23T09:21:26;3.57;;;1.90;;
16393;SDS011;8306;51.128;4.476;2024-03-23T09:23:53;5.17;;;3.07;;
16393;SDS011;8306;51.128;4.476;2024-03-23T09:26:19;5.00;;;2.50;;
16393;SDS011;8306;51.128;4.476;2024-03-23T09:28:48;5.13;;;2.10;;
16393;SDS011;8306;51.128;4.476;2024-03-23T09:31:12;6.77;;;2.17;;
16393;SDS011;8306;51.128;4.476;2024-03-23T09:33:38;5.07;;;2.43;;
16393;SDS011;8306;51.128;4.476;2024-03-23T09:36:05;7.20;;;2.57;;
16393;SDS011;8306;51.128;4.476;2024-03-23T09:38:31;5.87;;;2.10;;
16393;SDS011;8306;51.128;4.476;2024-03-23T09:40:58;5.13;;;1.00;;
16393;SDS011;8306;51.128;4.476;2024-03-23T09:43:24;4.10;;;0.90;;
16393;SDS011;8306;51.128;4.476;2024-03-23T09:45:51;4.97;;;1.17;;
16393;SDS011;8306;51.128;4.476;2024-03-23T09:48:17;3.23;;;1.17;;
16393;SDS011;8306;51.128;4.476;2024-03-23T09:50:44;3.23;;;1.50;;
16393;SDS011;8306;51.128;4.476;2024-03-23T09:53:11;3.83;;;1.00;;
16393;SDS011;8306;51.128;4.476;2024-03-23T09:55:37;2.97;;;1.00;;
16393;SDS011;8306;51.128;4.476;2024-03-23T09:58:04;3.33;;;1.07;;
16393;SDS011;8306;51.128;4.476;2024-03-23T10:00:30;1.83;;;0.70;;
16393;SDS011;8306;51.128;4.476;2024-03-23T10:02:57;3.07;;;1.10;;
16393;SDS011;8306;51.128;4.476;2024-03-23T10:05:23;2.23;;;0.83;;
16393;SDS011;8306;51.128;4.476;2024-03-23T10:07:50;2.30;;;0.70;;
16393;SDS011;8306;51.128;4.476;2024-03-23T10:10:16;2.87;;;1.03;;
16393;SDS011;8306;51.128;4.476;2024-03-23T10:12:45;3.10;;;0.70;;
16393;SDS011;8306;51.128;4.476;2024-03-23T10:15:21;3.77;;;1.10;;
16393;SDS011;8306;51.128;4.476;2024-03-23T10:17:47;3.03;;;1.10;;
16393;SDS011;8306;51.128;4.476;2024-03-23T10:20:13;2.37;;;0.93;;
16393;SDS011;8306;51.128;4.476;2024-03-23T10:22:39;6.53;;;1.33;;
16393;SDS011;8306;51.128;4.476;2024-03-23T10:25:09;3.93;;;1.50;;
16393;SDS011;8306;51.128;4.476;2024-03-23T10:27:35;3.70;;;1.70;;
16393;SDS011;8306;51.128;4.476;2024-03-23T10:30:12;2.93;;;1.10;;
16393;SDS011;8306;51.128;4.476;2024-03-23T10:32:34;3.77;;;1.27;;
16393;SDS011;8306;51.128;4.476;2024-03-23T10:35:19;4.03;;;1.37;;
16393;SDS011;8306;51.128;4.476;2024-03-23T10:37:42;4.73;;;1.47;;
16393;SDS011;8306;51.128;4.476;2024-03-23T10:40:09;5.73;;;1.50;;
16393;SDS011;8306;51.128;4.476;2024-03-23T10:42:35;4.63;;;1.60;;
16393;SDS011;8306;51.128;4.476;2024-03-23T10:45:01;4.03;;;1.63;;
16393;SDS011;8306;51.128;4.476;2024-03-23T10:47:27;3.90;;;1.63;;
16393;SDS011;8306;51.128;4.476;2024-03-23T10:49:54;3.27;;;1.80;;
16393;SDS011;8306;51.128;4.476;2024-03-23T10:52:20;5.77;;;2.23;;
16393;SDS011;8306;51.128;4.476;2024-03-23T10:54:47;4.97;;;1.67;;
16393;SDS011;8306;51.128;4.476;2024-03-23T11:00:02;3.50;;;1.30;;
16393;SDS011;8306;51.128;4.476;2024-03-23T11:02:27;4.50;;;1.60;;
16393;SDS011;8306;51.128;4.476;2024-03-23T11:04:54;3.63;;;1.33;;
16393;SDS011;8306;51.128;4.476;2024-03-23T11:09:53;4.57;;;1.50;;
16393;SDS011;8306;51.128;4.476;2024-03-23T11:14:52;3.60;;;1.23;;
16393;SDS011;8306;51.128;4.476;2024-03-23T11:17:30;4.67;;;1.60;;
16393;SDS011;8306;51.128;4.476;2024-03-23T11:20:03;9.60;;;1.73;;
16393;SDS011;8306;51.128;4.476;2024-03-23T11:25:13;2.97;;;1.37;;
16393;SDS011;8306;51.128;4.476;2024-03-23T11:27:39;4.73;;;2.17;;
16393;SDS011;8306;51.128;4.476;2024-03-23T11:30:11;4.90;;;1.50;;
16393;SDS011;8306;51.128;4.476;2024-03-23T11:32:35;5.73;;;2.10;;
16393;SDS011;8306;51.128;4.476;2024-03-23T11:35:02;5.40;;;1.80;;
16393;SDS011;8306;51.128;4.476;2024-03-23T11:37:28;4.73;;;1.50;;
16393;SDS011;8306;51.128;4.476;2024-03-23T11:39:54;5.10;;;1.50;;
16393;SDS011;8306;51.128;4.476;2024-03-23T11:42:21;3.57;;;1.73;;
16393;SDS011;8306;51.128;4.476;2024-03-23T11:44:47;3.03;;;1.73;;
16393;SDS011;8306;51.128;4.476;2024-03-23T11:47:14;3.80;;;2.10;;
16393;SDS011;8306;51.128;4.476;2024-03-23T11:49:40;3.27;;;2.00;;
16393;SDS011;8306;51.128;4.476;2024-03-23T11:52:07;3.73;;;1.90;;
16393;SDS011;8306;51.128;4.476;2024-03-23T11:54:33;3.50;;;1.70;;
16393;SDS011;8306;51.128;4.476;2024-03-23T11:57:00;3.67;;;2.40;;
16393;SDS011;8306;51.128;4.476;2024-03-23T11:59:36;3.23;;;1.70;;
16393;SDS011;8306;51.128;4.476;2024-03-23T12:02:05;3.13;;;1.30;;
16393;SDS011;8306;51.128;4.476;2024-03-23T12:04:33;3.10;;;1.10;;
16393;SDS011;8306;51.128;4.476;2024-03-23T12:07:15;1.80;;;1.10;;
16393;SDS011;8306;51.128;4.476;2024-03-23T12:09:41;2.63;;;1.17;;
16393;SDS011;8306;51.128;4.476;2024-03-23T12:12:12;2.20;;;1.30;;
16393;SDS011;8306;51.128;4.476;2024-03-23T12:14:37;4.33;;;1.50;;
16393;SDS011;8306;51.128;4.476;2024-03-23T12:17:09;3.60;;;1.40;;
16393;SDS011;8306;51.128;4.476;2024-03-23T12:19:33;2.00;;;1.10;;
16393;SDS011;8306;51.128;4.476;2024-03-23T12:21:59;5.80;;;1.80;;
16393;SDS011;8306;51.128;4.476;2024-03-23T12:24:26;4.23;;;1.60;;
16393;SDS011;8306;51.128;4.476;2024-03-23T12:26:52;2.73;;;1.40;;
16393;SDS011;8306;51.128;4.476;2024-03-23T12:29:19;2.70;;;1.70;;
16393;SDS011;8306;51.128;4.476;2024-03-23T12:31:45;3.00;;;1.40;;
16393;SDS011;8306;51.128;4.476;2024-03-23T12:34:12;4.17;;;1.60;;
16393;SDS011;8306;51.128;4.476;2024-03-23T12:36:38;3.07;;;1.77;;
16393;SDS011;8306;51.128;4.476;2024-03-23T12:39:05;3.00;;;1.67;;
16393;SDS011;8306;51.128;4.476;2024-03-23T12:41:31;2.23;;;1.40;;
16393;SDS011;8306;51.128;4.476;2024-03-23T12:43:58;2.70;;;1.23;;
16393;SDS011;8306;51.128;4.476;2024-03-23T12:46:24;5.87;;;1.97;;
16393;SDS011;8306;51.128;4.476;2024-03-23T12:48:51;4.53;;;1.93;;
16393;SDS011;8306;51.128;4.476;2024-03-23T12:51:17;7.97;;;2.20;;
16393;SDS011;8306;51.128;4.476;2024-03-23T12:53:43;5.90;;;2.10;;
16393;SDS011;8306;51.128;4.476;2024-03-23T12:56:13;3.63;;;1.73;;
16393;SDS011;8306;51.128;4.476;2024-03-23T12:58:39;5.57;;;2.20;;
16393;SDS011;8306;51.128;4.476;2024-03-23T13:01:06;6.77;;;2.47;;
16393;SDS011;8306;51.128;4.476;2024-03-23T13:03:32;4.53;;;1.80;;
16393;SDS011;8306;51.128;4.476;2024-03-23T13:05:59;2.47;;;1.50;;
16393;SDS011;8306;51.128;4.476;2024-03-23T13:08:25;3.73;;;1.40;;
16393;SDS011;8306;51.128;4.476;2024-03-23T13:10:52;4.00;;;1.50;;
16393;SDS011;8306;51.128;4.476;2024-03-23T13:13:18;4.70;;;1.53;;
16393;SDS011;8306;51.128;4.476;2024-03-23T13:15:50;2.17;;;1.07;;
16393;SDS011;8306;51.128;4.476;2024-03-23T13:18:17;2.07;;;0.80;;
16393;SDS011;8306;51.128;4.476;2024-03-23T13:20:43;4.30;;;1.53;;
16393;SDS011;8306;51.128;4.476;2024-03-23T13:23:10;3.43;;;1.60;;
16393;SDS011;8306;51.128;4.476;2024-03-23T13:25:36;3.17;;;1.10;;
16393;SDS011;8306;51.128;4.476;2024-03-23T13:28:03;3.10;;;1.10;;
16393;SDS011;8306;51.128;4.476;2024-03-23T13:30:30;2.97;;;0.87;;
16393;SDS011;8306;51.128;4.476;2024-03-23T13:32:56;4.63;;;1.10;;
16393;SDS011;8306;51.128;4.476;2024-03-23T13:35:23;4.67;;;1.10;;
16393;SDS011;8306;51.128;4.476;2024-03-23T13:37:49;2.93;;;0.90;;
16393;SDS011;8306;51.128;4.476;2024-03-23T13:40:16;3.47;;;0.80;;
16393;SDS011;8306;51.128;4.476;2024-03-23T13:42:42;2.03;;;0.67;;
16393;SDS011;8306;51.128;4.476;2024-03-23T13:45:09;2.07;;;0.70;;
16393;SDS011;8306;51.128;4.476;2024-03-23T13:47:35;2.53;;;0.63;;
16393;SDS011;8306;51.128;4.476;2024-03-23T13:50:02;1.73;;;0.70;;
16393;SDS011;8306;51.128;4.476;2024-03-23T13:52:28;1.20;;;0.60;;
16393;SDS011;8306;51.128;4.476;2024-03-23T13:54:55;1.70;;;0.80;;
16393;SDS011;8306;51.128;4.476;2024-03-23T13:57:21;1.90;;;0.83;;
16393;SDS011;8306;51.128;4.476;2024-03-23T13:59:48;2.57;;;0.80;;
16393;SDS011;8306;51.128;4.476;2024-03-23T14:02:14;1.73;;;0.50;;
16393;SDS011;8306;51.128;4.476;2024-03-23T14:04:41;0.80;;;0.40;;
16393;SDS011;8306;51.128;4.476;2024-03-23T14:07:07;2.70;;;0.57;;
16393;SDS011;8306;51.128;4.476;2024-03-23T14:09:33;2.00;;;0.70;;
16393;SDS011;8306;51.128;4.476;2024-03-23T14:12:00;0.50;;;0.40;;
16393;SDS011;8306;51.128;4.476;2024-03-23T14:14:26;1.27;;;0.67;;
16393;SDS011;8306;51.128;4.476;2024-03-23T14:16:53;1.50;;;0.53;;
16393;SDS011;8306;51.128;4.476;2024-03-23T14:19:19;2.47;;;0.80;;
16393;SDS011;8306;51.128;4.476;2024-03-23T14:21:46;1.10;;;0.50;;
16393;SDS011;8306;51.128;4.476;2024-03-23T14:24:12;1.87;;;0.70;;
16393;SDS011;8306;51.128;4.476;2024-03-23T14:26:39;2.13;;;0.83;;
16393;SDS011;8306;51.128;4.476;2024-03-23T14:29:05;2.13;;;0.90;;
16393;SDS011;8306;51.128;4.476;2024-03-23T14:31:32;2.57;;;0.90;;
16393;SDS011;8306;51.128;4.476;2024-03-23T14:33:58;1.93;;;0.90;;
16393;SDS011;8306;51.128;4.476;2024-03-23T14:36:26;2.77;;;1.10;;
16393;SDS011;8306;51.128;4.476;2024-03-23T14:38:51;1.87;;;0.80;;
16393;SDS011;8306;51.128;4.476;2024-03-23T14:41:18;3.60;;;1.23;;
16393;SDS011;8306;51.128;4.476;2024-03-23T14:43:44;3.40;;;0.83;;
16393;SDS011;8306;51.128;4.476;2024-03-23T14:46:12;3.80;;;1.10;;
16393;SDS011;8306;51.128;4.476;2024-03-23T14:48:40;3.57;;;1.00;;
16393;SDS011;8306;51.128;4.476;2024-03-23T14:51:06;4.03;;;1.43;;
16393;SDS011;8306;51.128;4.476;2024-03-23T14:53:33;3.70;;;1.63;;
16393;SDS011;8306;51.128;4.476;2024-03-23T14:56:00;3.90;;;1.27;;
16393;SDS011;8306;51.128;4.476;2024-03-23T14:58:26;4.97;;;1.13;;
16393;SDS011;8306;51.128;4.476;2024-03-23T15:00:52;3.23;;;1.10;;
16393;SDS011;8306;51.128;4.476;2024-03-23T15:03:19;3.33;;;1.33;;
16393;SDS011;8306;51.128;4.476;2024-03-23T15:05:55;2.83;;;1.47;;
16393;SDS011;8306;51.128;4.476;2024-03-23T15:08:21;2.90;;;1.20;;
16393;SDS011;8306;51.128;4.476;2024-03-23T15:10:47;2.70;;;1.30;;
16393;SDS011;8306;51.128;4.476;2024-03-23T15:13:14;2.70;;;1.50;;
16393;SDS011;8306;51.128;4.476;2024-03-23T15:15:40;2.50;;;0.93;;
16393;SDS011;8306;51.128;4.476;2024-03-23T15:18:07;2.37;;;0.90;;
16393;SDS011;8306;51.128;4.476;2024-03-23T15:20:33;3.13;;;1.10;;
16393;SDS011;8306;51.128;4.476;2024-03-23T15:22:59;4.03;;;1.27;;
16393;SDS011;8306;51.128;4.476;2024-03-23T15:25:26;3.93;;;1.30;;
16393;SDS011;8306;51.128;4.476;2024-03-23T15:27:52;2.33;;;1.10;;
16393;SDS011;8306;51.128;4.476;2024-03-23T15:30:19;2.47;;;1.20;;
16393;SDS011;8306;51.128;4.476;2024-03-23T15:32:45;4.27;;;1.10;;
16393;SDS011;8306;51.128;4.476;2024-03-23T15:35:12;2.40;;;1.00;;
16393;SDS011;8306;51.128;4.476;2024-03-23T15:37:38;3.30;;;1.07;;
16393;SDS011;8306;51.128;4.476;2024-03-23T15:40:05;2.63;;;1.20;;
16393;SDS011;8306;51.128;4.476;2024-03-23T15:42:31;2.80;;;1.20;;
16393;SDS011;8306;51.128;4.476;2024-03-23T15:44:58;3.47;;;1.43;;
16393;SDS011;8306;51.128;4.476;2024-03-23T15:47:24;2.60;;;1.10;;
16393;SDS011;8306;51.128;4.476;2024-03-23T15:49:51;2.77;;;1.00;;
16393;SDS011;8306;51.128;4.476;2024-03-23T15:52:17;2.93;;;1.43;;
16393;SDS011;8306;51.128;4.476;2024-03-23T15:54:44;3.30;;;1.10;;
16393;SDS011;8306;51.128;4.476;2024-03-23T15:57:10;2.60;;;0.80;;
16393;SDS011;8306;51.128;4.476;2024-03-23T15:59:39;2.97;;;1.17;;
16393;SDS011;8306;51.128;4.476;2024-03-23T16:02:03;2.40;;;1.03;;